Norfolk, Massachusetts
Current Conditions -  °F | °C
As of 7:53 AM on Sunday 23 Nov 2014 (Local Time) from KOWD Reporting Station
Overcast Overcast  
Wind Chill: 41°   Ceiling: 11000
Heat Index: 45°   Visibility: 10mi
Dew Point: 24°   Wind: 7mph
Humidity: 44%   Direction: 220°SW
Pressure: 30.13"   Gusts: NA
Location:  42.12°N, 71.32°W
Report Text: KOWD 231253Z 22006KT 10SM OVC110 07/M04 A3013 RMK AO2 SLP202 T00721044
Loading
Personal Weather Stations






























Interactive Weather Map New forecast layout! Learn more

10-Day Weather Forecast

Advertisements
Track Severe Weather on mobile